Bookmark and Share
Track history (hours):
 

Bao An Cheng 69

Last reported at 2014-Apr-23 06:10 UTC. Time now 2014-Apr-24 02:09 UTC.
Position N 22°07' E 114°00'.

Length 121 m; draft 6.6 m.

Type: Cargo ship. MMSI: 412703090.

NotesDate/timePositionNaut miles runAvg speedWind from/ knotsBaromVisibWave heightAir tempDewpointWater temp
2014-Apr-23 06:10N 22°07' E 114°00'15110.3
2014-Apr-22 15:34N 22°54' E 116°35'1110.9
2014-Apr-22 14:33N 22°60' E 116°46'5410.8
2014-Apr-22 09:32N 23°32' E 117°33'51 9.6
2014-Apr-22 04:14N 24°06' E 118°15'710.0
2014-Apr-22 03:33N 24°10' E 118°20'  
2014-Apr-18 07:25N 30°19' E 122°36'8 8.8
2014-Apr-18 06:32N 30°11' E 122°36'10 9.8
2014-Apr-18 05:33N 30°01' E 122°36'1010.2
2014-Apr-18 04:33N 29°51' E 122°34'1010.6
2014-Apr-18 03:33N 29°41' E 122°30'1010.3
2014-Apr-18 02:33N 29°32' E 122°26'335 9.8
2014-Apr-16 16:16N 24°47' E 119°06'710.4
2014-Apr-16 15:33N 24°42' E 119°00'1110.6
2014-Apr-16 14:33N 24°35' E 118°52'2311.1
2014-Apr-16 12:31N 24°20' E 118°33'1111.4
2014-Apr-16 11:33N 24°13' E 118°24'1211.0
2014-Apr-16 10:29N 24°05' E 118°14'1010.5
2014-Apr-16 09:33N 23°59' E 118°06'10 9.8
2014-Apr-16 08:33N 23°52' E 117°58'10 9.4
2014-Apr-16 07:28N 23°45' E 117°50'8 8.9
2014-Apr-16 06:33N 23°40' E 117°43'10 9.2
2014-Apr-16 05:30N 23°34' E 117°35'1110.1
2014-Apr-16 04:24N 23°26' E 117°27'3010.4
2014-Apr-16 01:32N 23°08' E 117°01'1010.0
2014-Apr-16 00:32N 23°03' E 116°51'174 7.9
2014-Apr-15 02:33N 22°09' E 113°52'9 9.0
2014-Apr-15 01:33N 22°18' E 113°48'8 8.3
2014-Apr-15 00:33N 22°26' E 113°45'8 8.0
2014-Apr-14 23:33N 22°33' E 113°43'9 8.4
2014-Apr-14 22:32N 22°42' E 113°41'9 8.6
2014-Apr-14 21:31N 22°49' E 113°36'8 8.7
2014-Apr-14 20:33N 22°57' E 113°33'8 8.2
2014-Apr-14 19:33N 23°04' E 113°29'2 2.1
2014-Apr-14 18:33N 23°06' E 113°27'0 0.0
2014-Apr-14 14:33N 23°06' E 113°27'0 0.0
2014-Apr-14 13:33N 23°06' E 113°27'0 0.0
2014-Apr-14 10:29N 23°06' E 113°27'10 0.8
2014-Apr-13 22:31N 22°57' E 113°32'8 7.8
2014-Apr-13 21:33N 22°50' E 113°35'8 7.8
2014-Apr-13 20:31N 22°44' E 113°40'8 7.9
2014-Apr-13 19:33N 22°36' E 113°42'8 8.2
2014-Apr-13 18:33N 22°29' E 113°45'9 8.1
2014-Apr-13 17:30N 22°20' E 113°48'8 8.3
2014-Apr-13 16:33N 22°13' E 113°50'10 8.3
2014-Apr-13 15:23N 22°08' E 113°59'1 0.4
2014-Apr-13 12:18N 22°07' E 113°60'0 0.0
2014-Apr-13 09:26N 22°07' E 113°60'0 0.0
2014-Apr-13 07:08N 22°07' E 113°60'  

Dump ship's entire track history

sailing weather and tide predictions

Bao An Cheng 69 — BVBD5 — position and weather